createdAt,value
2018-07-25T00:00:49.227Z,19.58
2018-07-25T00:05:53.960Z,19.57
2018-07-25T00:10:58.728Z,19.42
2018-07-25T00:16:03.658Z,19.35
2018-07-25T00:21:08.768Z,19.23
2018-07-25T00:26:13.621Z,19.20
2018-07-25T00:31:18.414Z,19.20
2018-07-25T00:36:23.143Z,19.08
2018-07-25T00:41:27.913Z,18.93
2018-07-25T00:46:32.668Z,18.79
2018-07-25T00:51:37.388Z,18.67
2018-07-25T00:56:42.155Z,18.59
2018-07-25T01:01:46.908Z,18.52
2018-07-25T01:06:51.608Z,18.48
2018-07-25T01:11:56.483Z,18.39
2018-07-25T01:17:01.261Z,18.29
2018-07-25T01:22:05.997Z,18.36
2018-07-25T01:27:10.772Z,18.24
2018-07-25T01:32:15.462Z,18.16
2018-07-25T01:37:20.142Z,18.06
2018-07-25T01:42:24.920Z,18.03
2018-07-25T01:47:29.609Z,18.01
2018-07-25T01:52:34.410Z,18.06
2018-07-25T01:57:39.526Z,18.07
2018-07-25T02:02:44.282Z,18.04
2018-07-25T02:07:48.963Z,18.06
2018-07-25T02:12:53.619Z,18.11
2018-07-25T02:17:58.219Z,18.15
2018-07-25T02:23:03.025Z,18.18
2018-07-25T02:28:07.552Z,18.23
2018-07-25T02:33:12.568Z,18.13
2018-07-25T02:38:17.249Z,18.10
2018-07-25T02:43:21.981Z,17.94
2018-07-25T02:48:26.703Z,17.90
2018-07-25T02:53:31.459Z,17.66
2018-07-25T02:58:36.151Z,17.50
2018-07-25T03:03:41.035Z,17.45
2018-07-25T03:08:45.903Z,17.43
2018-07-25T03:13:50.565Z,17.42
2018-07-25T03:18:55.271Z,17.34
2018-07-25T03:23:59.983Z,17.31
2018-07-25T03:29:04.726Z,17.30
2018-07-25T03:34:09.435Z,17.25
2018-07-25T03:39:14.249Z,17.25
2018-07-25T03:44:19.023Z,17.34
2018-07-25T03:49:23.483Z,17.38
2018-07-25T03:54:29.575Z,17.46
2018-07-25T03:59:34.258Z,17.58
2018-07-25T04:04:38.879Z,17.81
2018-07-25T04:09:43.530Z,17.92
2018-07-25T04:14:48.210Z,18.48
2018-07-25T04:19:52.944Z,19.79
2018-07-25T04:24:57.759Z,20.85
2018-07-25T04:30:02.534Z,22.06
2018-07-25T04:35:08.133Z,21.70
2018-07-25T04:40:12.857Z,22.01
2018-07-25T04:45:17.508Z,22.33
2018-07-25T04:50:22.409Z,22.13
2018-07-25T04:55:27.060Z,22.92
2018-07-25T05:00:31.850Z,23.23
2018-07-25T05:05:36.553Z,23.10
2018-07-25T05:10:41.260Z,24.09
2018-07-25T05:15:46.041Z,23.73
2018-07-25T05:20:50.773Z,24.06
2018-07-25T05:25:55.827Z,24.74
2018-07-25T05:31:00.740Z,26.13
2018-07-25T05:36:05.528Z,24.77
2018-07-25T05:41:10.348Z,25.65
2018-07-25T05:46:15.347Z,26.16
2018-07-25T05:51:20.156Z,26.34
2018-07-25T05:56:24.864Z,26.87
2018-07-25T06:01:29.666Z,27.15
2018-07-25T06:06:34.364Z,26.66
2018-07-25T06:11:39.800Z,26.37
2018-07-25T06:16:44.473Z,26.80
2018-07-25T06:21:49.231Z,26.33
2018-07-25T06:26:53.985Z,27.55
2018-07-25T06:31:58.786Z,27.04
2018-07-25T06:37:03.625Z,27.17
2018-07-25T06:42:08.936Z,27.36
2018-07-25T06:47:13.766Z,26.70
2018-07-25T06:52:18.446Z,26.85
2018-07-25T06:57:23.189Z,26.30
2018-07-25T07:02:28.108Z,27.33
2018-07-25T07:07:32.808Z,27.03
2018-07-25T07:12:37.577Z,26.79
2018-07-25T07:17:42.876Z,27.35
2018-07-25T07:22:47.591Z,27.68
2018-07-25T07:27:52.986Z,27.65
2018-07-25T07:32:57.717Z,28.87
2018-07-25T07:38:02.485Z,28.89
2018-07-25T07:43:07.256Z,28.99
2018-07-25T07:48:12.051Z,29.60
2018-07-25T07:53:16.828Z,29.62
2018-07-25T07:58:21.621Z,30.01
2018-07-25T08:03:26.457Z,30.15
2018-07-25T08:08:31.292Z,30.49
2018-07-25T08:13:35.966Z,30.81
2018-07-25T08:18:40.840Z,30.87
2018-07-25T08:23:45.489Z,31.20
2018-07-25T08:28:50.199Z,31.26
2018-07-25T08:33:54.932Z,31.28
2018-07-25T08:38:59.685Z,31.46
2018-07-25T08:44:05.667Z,31.53
2018-07-25T08:49:10.423Z,32.00
2018-07-25T08:54:15.173Z,32.02
2018-07-25T08:59:20.041Z,32.71
2018-07-25T09:04:24.773Z,32.46
2018-07-25T09:09:29.443Z,32.53
2018-07-25T09:14:34.348Z,32.85
2018-07-25T09:19:39.099Z,32.85
2018-07-25T09:24:43.964Z,33.27
2018-07-25T09:29:48.661Z,33.21
2018-07-25T09:34:53.354Z,32.92
2018-07-25T09:39:58.198Z,33.03
2018-07-25T09:45:02.861Z,33.15
2018-07-25T09:50:08.844Z,33.52
2018-07-25T09:55:13.597Z,33.81
2018-07-25T10:00:24.394Z,33.79
2018-07-25T10:05:29.302Z,34.42
2018-07-25T10:10:34.101Z,34.71
2018-07-25T10:15:39.051Z,35.45
2018-07-25T10:20:43.913Z,34.34
2018-07-25T10:25:48.590Z,34.53
2018-07-25T10:30:53.288Z,34.63
2018-07-25T10:35:58.140Z,34.31
2018-07-25T10:41:03.000Z,34.50
2018-07-25T10:46:07.968Z,34.35
2018-07-25T10:51:12.821Z,34.66
2018-07-25T10:56:17.628Z,34.89
2018-07-25T11:01:22.353Z,34.75
2018-07-25T11:06:27.223Z,34.97
2018-07-25T11:11:31.988Z,35.40
2018-07-25T11:16:36.794Z,35.81
2018-07-25T11:21:41.498Z,35.90
2018-07-25T11:26:46.361Z,36.11
2018-07-25T11:31:51.217Z,35.94
2018-07-25T11:36:56.009Z,35.95
2018-07-25T11:42:00.724Z,35.81
2018-07-25T11:47:05.571Z,35.51
2018-07-25T11:52:10.386Z,35.92
2018-07-25T11:57:15.181Z,36.32
2018-07-25T12:02:20.112Z,36.80
2018-07-25T12:07:24.958Z,37.29
2018-07-25T12:12:29.741Z,36.46
2018-07-25T12:17:34.577Z,37.40
2018-07-25T12:22:39.345Z,37.25
2018-07-25T12:27:44.153Z,37.03
2018-07-25T12:32:48.885Z,36.76
2018-07-25T12:37:53.671Z,36.64
2018-07-25T12:42:58.467Z,37.24
2018-07-25T12:48:03.263Z,38.25
2018-07-25T12:53:08.150Z,37.33
2018-07-25T12:58:12.915Z,38.43
2018-07-25T13:03:18.545Z,37.33
2018-07-25T13:08:23.247Z,36.84
2018-07-25T13:13:27.932Z,36.14
2018-07-25T13:18:32.672Z,33.92
2018-07-25T13:23:37.645Z,32.63
2018-07-25T13:28:42.500Z,32.52
2018-07-25T13:33:47.221Z,32.61
2018-07-25T13:38:52.020Z,32.42
2018-07-25T13:43:56.822Z,32.60
2018-07-25T13:49:01.542Z,32.09
2018-07-25T13:54:06.692Z,31.97
2018-07-25T13:59:11.415Z,32.42
2018-07-25T14:04:26.154Z,31.78
2018-07-25T14:09:31.156Z,30.32
2018-07-25T14:14:36.308Z,30.65
2018-07-25T14:19:41.078Z,31.07
2018-07-25T14:24:45.922Z,29.54
2018-07-25T14:29:50.820Z,29.11
2018-07-25T14:34:55.995Z,27.57
2018-07-25T14:40:00.796Z,27.43
2018-07-25T14:45:05.752Z,27.64
2018-07-25T14:50:10.613Z,28.91
2018-07-25T14:55:15.364Z,28.89
2018-07-25T15:00:20.226Z,30.28
2018-07-25T15:05:24.952Z,30.04
2018-07-25T15:10:29.829Z,30.37
2018-07-25T15:15:34.680Z,30.46
2018-07-25T15:20:39.449Z,31.23
2018-07-25T15:25:44.235Z,32.27
2018-07-25T15:30:49.018Z,33.92
2018-07-25T15:35:53.789Z,33.66
2018-07-25T15:40:58.624Z,31.80
2018-07-25T15:46:03.483Z,30.89
2018-07-25T15:51:09.347Z,29.72
2018-07-25T15:56:14.176Z,30.14
2018-07-25T16:01:19.040Z,30.81
2018-07-25T16:06:24.206Z,30.90
2018-07-25T16:11:29.062Z,30.96
2018-07-25T16:16:33.851Z,30.87
2018-07-25T16:21:38.639Z,31.45
2018-07-25T16:26:43.580Z,31.83
2018-07-25T16:31:48.428Z,32.59
2018-07-25T16:36:53.165Z,33.49
2018-07-25T16:41:57.984Z,33.03
2018-07-25T16:47:02.750Z,32.20
2018-07-25T16:52:07.637Z,31.81
2018-07-25T16:57:12.429Z,32.35
2018-07-25T17:02:17.284Z,33.04
2018-07-25T17:07:22.123Z,33.57
2018-07-25T17:12:26.922Z,33.96
2018-07-25T17:17:31.754Z,33.67
2018-07-25T17:22:36.573Z,34.23
2018-07-25T17:27:41.431Z,33.94
2018-07-25T17:32:46.268Z,33.25
2018-07-25T17:37:51.074Z,32.63
2018-07-25T17:42:55.943Z,31.94
2018-07-25T17:48:00.765Z,31.02
2018-07-25T17:53:05.670Z,30.66
2018-07-25T17:58:10.413Z,30.32
2018-07-25T18:03:15.264Z,30.15
2018-07-25T18:08:20.047Z,29.79
2018-07-25T18:13:30.071Z,29.57
2018-07-25T18:18:34.800Z,29.11
2018-07-25T18:23:39.556Z,28.82
2018-07-25T18:28:44.348Z,28.57
2018-07-25T18:33:49.329Z,28.26
2018-07-25T18:38:54.096Z,27.91
2018-07-25T18:43:58.847Z,27.68
2018-07-25T18:49:03.845Z,27.29
2018-07-25T18:54:08.699Z,27.03
2018-07-25T18:59:13.312Z,26.86
2018-07-25T19:04:18.180Z,26.59
2018-07-25T19:09:22.972Z,26.44
2018-07-25T19:14:33.069Z,26.34
2018-07-25T19:19:38.078Z,26.10
2018-07-25T19:24:43.055Z,25.99
2018-07-25T19:29:47.915Z,26.28
2018-07-25T19:34:52.720Z,25.88
2018-07-25T19:39:57.456Z,25.59
2018-07-25T19:45:02.192Z,25.43
2018-07-25T19:50:07.147Z,25.20
2018-07-25T19:55:11.923Z,25.11
2018-07-25T20:00:17.099Z,25.16
2018-07-25T20:05:21.966Z,24.89
2018-07-25T20:10:27.182Z,24.68
2018-07-25T20:15:37.329Z,24.35
2018-07-25T20:20:43.606Z,24.20
2018-07-25T20:25:48.515Z,23.93
2018-07-25T20:30:58.555Z,23.80
2018-07-25T20:36:03.750Z,23.72
2018-07-25T20:41:08.725Z,23.67
2018-07-25T20:46:13.511Z,23.44
2018-07-25T20:51:18.362Z,23.43
2018-07-25T20:56:23.358Z,23.53
2018-07-25T21:01:28.463Z,23.66
2018-07-25T21:06:32.963Z,23.29
2018-07-25T21:11:38.027Z,23.26
2018-07-25T21:16:42.715Z,23.34
2018-07-25T21:21:47.673Z,23.59
2018-07-25T21:26:52.494Z,23.26
2018-07-25T21:31:57.377Z,22.94
2018-07-25T21:37:02.147Z,22.72
2018-07-25T21:42:07.021Z,22.79
2018-07-25T21:47:12.225Z,22.48
2018-07-25T21:52:16.622Z,22.38
2018-07-25T21:57:21.368Z,22.17
2018-07-25T22:02:26.086Z,21.99
2018-07-25T22:07:30.879Z,22.09
2018-07-25T22:12:35.676Z,21.95
2018-07-25T22:17:40.434Z,21.76
2018-07-25T22:22:45.172Z,21.56
2018-07-25T22:27:49.973Z,21.43
2018-07-25T22:32:54.734Z,21.40
2018-07-25T22:37:59.475Z,21.32
2018-07-25T22:43:04.370Z,21.33
2018-07-25T22:48:09.526Z,21.28
2018-07-25T22:53:14.235Z,21.14
2018-07-25T22:58:19.007Z,21.24
2018-07-25T23:03:23.661Z,21.13
2018-07-25T23:08:28.418Z,20.98
2018-07-25T23:13:33.096Z,20.89
2018-07-25T23:18:37.876Z,20.73
2018-07-25T23:23:42.647Z,20.64
2018-07-25T23:28:47.474Z,20.64
2018-07-25T23:33:52.170Z,20.58
2018-07-25T23:38:57.913Z,20.51
2018-07-25T23:44:02.570Z,20.41
2018-07-25T23:49:07.327Z,20.37
2018-07-25T23:54:12.073Z,20.24
2018-07-25T23:59:16.833Z,20.18
